KFRI/FRI METAR and TAF weather

Enter ICAO airport designator
Station Type Date Time Source
KFRI METAR 2022/01/27 22:56 UTC NOAA

KFRI 272256Z AUTO 35009KT 10SM OVC070 07/M06 A3032 RMK AO2 SLP276 T00711059


Station Type Date Time Source
KFRI Decoded METAR 2022/01/27 22:56 UTC NOAA

Fort Riley, Marshall AAF Ft Riley, KS, United States (KFRI) 39-03-20N 096-45-51W
Jan 27, 2022 - 05:56 PM EST / 2022.01.27 2256 UTC
Wind: from the N (350 degrees) at 10 MPH (9 KT):0
Visibility: 10 mile(s):0
Sky conditions: overcast
Temperature: 44.8 F (7.1 C)
Dew Point: 21.4 F (-5.9 C)
Relative Humidity: 39%
Pressure (altimeter): 30.32 in. Hg (1026 hPa)
ob: KFRI 272256Z AUTO 35009KT 10SM OVC070 07/M06 A3032 RMK AO2 SLP276 T00711059
cycle: 23

Station Type Date Time Source
KFRI TAF 2022/01/27 21:16 UTC NOAA

TAF KFRI 272100Z 2721/2903 36006KT 9999 FEW150 510033 QNH3028INS
BECMG 2806/2807 32009KT 9999 SCT018 510043 QNH3042INS
BECMG 2814/2815 VRB06KT 9999 BKN011 620117 QNH3044INS
BECMG 2820/2821 VRB06KT 9999 FEW025 510043 QNH3038INS
BECMG 2823/2824 VRB06KT 9999 SKC QNH3030INS TX10/2722Z TNM03/2814Z

Example: see airport list